Time,TemperatureF,DewpointF,PressureIn,WindDirection,WindDirectionDegrees,WindSpeedMPH,WindSpeedGustMPH,Humidity,HourlyPrecipIn,Conditions,Clouds,dailyrainin,SoftwareType,DateUTC
2013-09-25 00:01:00,48.4,45.1,29.96,East,97,1.0,-999.0,88,-99.99,,,-99.99,custom,2013-09-25 04:01:00,
2013-09-25 00:03:00,48.7,45.1,29.99,East,97,1.0,-999.0,87,-99.99,,,-99.99,custom,2013-09-25 04:03:00,
2013-09-25 00:08:00,49.3,44.8,29.97,East,94,1.0,-999.0,84,-99.99,,,-99.99,custom,2013-09-25 04:08:00,
2013-09-25 00:13:00,49.3,45.1,29.93,East,95,1.0,-999.0,86,-99.99,,,-99.99,custom,2013-09-25 04:13:00,
2013-09-25 00:18:00,49.1,44.4,29.95,ENE,64,2.0,-999.0,84,-99.99,,,-99.99,custom,2013-09-25 04:18:00,
2013-09-25 00:23:00,49.3,44.4,29.93,East,91,1.0,-999.0,83,-99.99,,,-99.99,custom,2013-09-25 04:23:00,
2013-09-25 00:28:00,49.6,45.0,29.97,ESE,109,2.0,-999.0,84,-99.99,,,-99.99,custom,2013-09-25 04:28:00,
2013-09-25 00:33:00,49.5,44.4,29.96,East,98,1.0,-999.0,83,-99.99,,,-99.99,custom,2013-09-25 04:33:00,
2013-09-25 00:38:00,49.1,44.8,29.95,East,94,1.0,-999.0,85,-99.99,,,-99.99,custom,2013-09-25 04:38:00,
2013-09-25 00:43:00,49.1,44.2,29.96,East,94,2.0,-999.0,83,-99.99,,,-99.99,custom,2013-09-25 04:43:00,
2013-09-25 00:48:00,49.8,45.0,29.96,East,99,2.0,-999.0,83,-99.99,,,-99.99,custom,2013-09-25 04:48:00,
2013-09-25 00:53:00,49.8,45.0,29.95,East,92,1.0,-999.0,83,-99.99,,,-99.99,custom,2013-09-25 04:53:00,
2013-09-25 00:58:00,49.1,44.6,29.95,East,96,1.0,-999.0,84,-99.99,,,-99.99,custom,2013-09-25 04:58:00,
2013-09-25 01:03:00,48.2,44.2,29.95,East,81,1.0,-999.0,86,-99.99,,,-99.99,custom,2013-09-25 05:03:00,
2013-09-25 01:08:00,48.2,46.4,29.95,ENE,64,0.0,-999.0,93,-99.99,,,-99.99,custom,2013-09-25 05:08:00,
2013-09-25 01:13:00,48.7,45.0,29.96,ENE,70,1.0,-999.0,86,-99.99,,,-99.99,custom,2013-09-25 05:13:00,
2013-09-25 01:18:00,48.4,46.2,29.97,SE,136,0.0,-999.0,92,-99.99,,,-99.99,custom,2013-09-25 05:18:00,
2013-09-25 01:23:00,48.4,45.7,29.97,ESE,104,1.0,-999.0,90,-99.99,,,-99.99,custom,2013-09-25 05:23:00,
2013-09-25 01:28:00,48.2,45.1,29.98,ENE,70,1.0,-999.0,89,-99.99,,,-99.99,custom,2013-09-25 05:28:00,
2013-09-25 01:33:00,48.2,45.0,29.93,East,94,1.0,-999.0,88,-99.99,,,-99.99,custom,2013-09-25 05:33:00,
2013-09-25 01:38:00,48.2,46.2,29.98,East,95,1.0,-999.0,93,-99.99,,,-99.99,custom,2013-09-25 05:38:00,
2013-09-25 01:43:00,47.8,46.2,29.95,East,90,0.0,-999.0,94,-99.99,,,-99.99,custom,2013-09-25 05:43:00,
2013-09-25 01:48:00,47.8,45.9,29.95,East,83,1.0,-999.0,93,-99.99,,,-99.99,custom,2013-09-25 05:48:00,
2013-09-25 01:53:00,47.3,45.0,30.00,ENE,75,1.0,-999.0,92,-99.99,,,-99.99,custom,2013-09-25 05:53:00,
2013-09-25 01:58:00,47.7,45.0,29.96,East,86,1.0,-999.0,90,-99.99,,,-99.99,custom,2013-09-25 05:58:00,
2013-09-25 02:03:00,47.8,45.5,29.95,East,86,1.0,-999.0,91,-99.99,,,-99.99,custom,2013-09-25 06:03:00,
2013-09-25 02:08:00,47.1,45.7,29.96,East,83,0.0,-999.0,95,-99.99,,,-99.99,custom,2013-09-25 06:08:00,
2013-09-25 02:13:00,46.8,45.3,29.93,ENE,67,1.0,-999.0,94,-99.99,,,-99.99,custom,2013-09-25 06:13:00,
2013-09-25 02:18:00,47.5,45.3,29.95,East,95,1.0,-999.0,92,-99.99,,,-99.99,custom,2013-09-25 06:18:00,
2013-09-25 02:23:00,48.0,45.3,29.98,East,92,1.0,-999.0,90,-99.99,,,-99.99,custom,2013-09-25 06:23:00,
2013-09-25 02:28:00,48.0,45.5,29.93,East,94,1.0,-999.0,91,-99.99,,,-99.99,custom,2013-09-25 06:28:00,
2013-09-25 02:33:00,47.7,45.0,29.92,East,90,1.0,-999.0,90,-99.99,,,-99.99,custom,2013-09-25 06:33:00,
2013-09-25 02:38:00,47.3,45.1,29.94,East,86,1.0,-999.0,92,-99.99,,,-99.99,custom,2013-09-25 06:38:00,
2013-09-25 02:43:00,47.1,44.6,29.97,East,86,1.0,-999.0,91,-99.99,,,-99.99,custom,2013-09-25 06:43:00,
2013-09-25 02:48:00,47.1,45.0,29.94,ESE,110,1.0,-999.0,92,-99.99,,,-99.99,custom,2013-09-25 06:48:00,
2013-09-25 02:53:00,46.8,46.0,29.93,SE,141,1.0,-999.0,97,-99.99,,,-99.99,custom,2013-09-25 06:53:00,
2013-09-25 02:58:00,46.6,45.7,29.94,SE,146,1.0,-999.0,97,-99.99,,,-99.99,custom,2013-09-25 06:58:00,
2013-09-25 03:03:00,46.4,44.4,29.96,East,86,1.0,-999.0,93,-99.99,,,-99.99,custom,2013-09-25 07:03:00,
2013-09-25 03:08:00,46.8,45.5,29.93,East,92,1.0,-999.0,95,-99.99,,,-99.99,custom,2013-09-25 07:08:00,
2013-09-25 03:13:00,46.4,44.6,29.95,East,99,1.0,-999.0,93,-99.99,,,-99.99,custom,2013-09-25 07:13:00,
2013-09-25 03:18:00,46.4,44.8,29.93,ENE,60,1.0,-999.0,94,-99.99,,,-99.99,custom,2013-09-25 07:18:00,
2013-09-25 03:23:00,46.4,44.2,29.93,East,84,2.0,-999.0,92,-99.99,,,-99.99,custom,2013-09-25 07:23:00,
2013-09-25 03:28:00,46.4,45.0,29.96,ENE,60,0.0,-999.0,94,-99.99,,,-99.99,custom,2013-09-25 07:28:00,
2013-09-25 03:33:00,46.6,45.3,29.95,East,99,1.0,-999.0,95,-99.99,,,-99.99,custom,2013-09-25 07:33:00,
2013-09-25 03:38:00,46.6,44.2,29.94,ENE,76,1.0,-999.0,91,-99.99,,,-99.99,custom,2013-09-25 07:38:00,
2013-09-25 03:43:00,46.4,45.9,29.95,East,86,0.0,-999.0,98,-99.99,,,-99.99,custom,2013-09-25 07:43:00,
2013-09-25 03:48:00,46.4,45.0,29.94,ENE,71,1.0,-999.0,95,-99.99,,,-99.99,custom,2013-09-25 07:48:00,
2013-09-25 03:53:00,47.1,45.1,29.97,East,98,1.0,-999.0,93,-99.99,,,-99.99,custom,2013-09-25 07:53:00,
2013-09-25 03:58:00,46.9,44.4,29.94,East,94,1.0,-999.0,91,-99.99,,,-99.99,custom,2013-09-25 07:58:00,
2013-09-25 04:03:00,47.7,45.3,29.92,ESE,110,1.0,-999.0,91,-99.99,,,-99.99,custom,2013-09-25 08:03:00,
2013-09-25 04:08:00,47.8,45.3,29.94,ESE,109,1.0,-999.0,91,-99.99,,,-99.99,custom,2013-09-25 08:08:00,
2013-09-25 04:13:00,48.0,44.6,29.91,ESE,104,2.0,-999.0,88,-99.99,,,-99.99,custom,2013-09-25 08:13:00,
2013-09-25 04:18:00,47.7,46.2,29.94,East,89,1.0,-999.0,94,-99.99,,,-99.99,custom,2013-09-25 08:18:00,
2013-09-25 04:23:00,47.3,45.0,29.94,East,89,1.0,-999.0,91,-99.99,,,-99.99,custom,2013-09-25 08:23:00,
2013-09-25 04:28:00,47.7,44.6,29.96,East,84,1.0,-999.0,89,-99.99,,,-99.99,custom,2013-09-25 08:28:00,
2013-09-25 04:33:00,47.1,45.5,29.93,East,83,0.0,-999.0,94,-99.99,,,-99.99,custom,2013-09-25 08:33:00,
2013-09-25 04:38:00,47.5,44.6,29.95,East,82,1.0,-999.0,89,-99.99,,,-99.99,custom,2013-09-25 08:38:00,
2013-09-25 04:43:00,47.8,45.1,29.98,East,89,1.0,-999.0,90,-99.99,,,-99.99,custom,2013-09-25 08:43:00,
2013-09-25 04:48:00,47.3,45.1,29.95,East,90,1.0,-999.0,92,-99.99,,,-99.99,custom,2013-09-25 08:48:00,
2013-09-25 04:53:00,46.4,44.1,29.93,East,100,1.0,-999.0,91,-99.99,,,-99.99,custom,2013-09-25 08:53:00,
2013-09-25 04:58:00,46.6,44.2,29.93,East,84,1.0,-999.0,91,-99.99,,,-99.99,custom,2013-09-25 08:58:00,
2013-09-25 05:03:00,46.8,44.1,29.94,East,97,1.0,-999.0,90,-99.99,,,-99.99,custom,2013-09-25 09:03:00,
2013-09-25 05:08:00,47.3,44.1,29.94,East,84,1.0,-999.0,88,-99.99,,,-99.99,custom,2013-09-25 09:08:00,
2013-09-25 05:13:00,47.1,44.8,29.96,East,83,1.0,-999.0,92,-99.99,,,-99.99,custom,2013-09-25 09:13:00,
2013-09-25 05:18:00,46.0,44.4,29.93,East,85,1.0,-999.0,94,-99.99,,,-99.99,custom,2013-09-25 09:18:00,
2013-09-25 05:24:00,45.0,43.5,29.92,East,82,1.0,-999.0,95,-99.99,,,-99.99,custom,2013-09-25 09:24:00,
2013-09-25 05:29:00,45.7,43.7,29.94,East,94,1.0,-999.0,93,-99.99,,,-99.99,custom,2013-09-25 09:29:00,
2013-09-25 05:34:00,46.4,44.2,29.93,East,95,1.0,-999.0,92,-99.99,,,-99.99,custom,2013-09-25 09:34:00,
2013-09-25 05:39:00,46.4,44.1,29.93,East,83,1.0,-999.0,92,-99.99,,,-99.99,custom,2013-09-25 09:39:00,
2013-09-25 05:44:00,46.8,44.2,29.95,SE,141,1.0,-999.0,91,-99.99,,,-99.99,custom,2013-09-25 09:44:00,
2013-09-25 05:49:00,46.4,44.8,29.94,ENE,76,0.0,-999.0,94,-99.99,,,-99.99,custom,2013-09-25 09:49:00,
2013-09-25 05:54:00,46.4,45.5,29.94,ESE,105,1.0,-999.0,96,-99.99,,,-99.99,custom,2013-09-25 09:54:00,
2013-09-25 05:59:00,46.4,45.9,29.93,ESE,107,1.0,-999.0,98,-99.99,,,-99.99,custom,2013-09-25 09:59:00,
2013-09-25 06:04:00,46.0,45.9,29.96,SSW,210,0.0,-999.0,99,-99.99,,,-99.99,custom,2013-09-25 10:04:00,
2013-09-25 06:09:00,46.0,44.8,29.94,East,93,1.0,-999.0,95,-99.99,,,-99.99,custom,2013-09-25 10:09:00,
2013-09-25 06:14:00,45.9,45.3,29.93,East,84,1.0,-999.0,98,-99.99,,,-99.99,custom,2013-09-25 10:14:00,
2013-09-25 06:19:00,46.0,44.8,29.92,East,85,1.0,-999.0,95,-99.99,,,-99.99,custom,2013-09-25 10:19:00,
2013-09-25 06:24:00,45.9,45.3,29.94,South,179,0.0,-999.0,98,-99.99,,,-99.99,custom,2013-09-25 10:24:00,
2013-09-25 06:29:00,46.0,45.1,29.94,SSE,149,1.0,-999.0,97,-99.99,,,-99.99,custom,2013-09-25 10:29:00,
2013-09-25 06:34:00,46.4,45.5,29.95,ESE,122,1.0,-999.0,97,-99.99,,,-99.99,custom,2013-09-25 10:34:00,
2013-09-25 06:39:00,46.8,44.4,29.92,East,97,1.0,-999.0,91,-99.99,,,-99.99,custom,2013-09-25 10:39:00,
2013-09-25 06:44:00,46.4,45.3,29.94,ENE,69,0.0,-999.0,96,-99.99,,,-99.99,custom,2013-09-25 10:44:00,
2013-09-25 06:49:00,46.4,46.0,29.93,SE,144,1.0,-999.0,98,-99.99,,,-99.99,custom,2013-09-25 10:49:00,
2013-09-25 06:54:00,46.2,45.0,29.92,ESE,106,1.0,-999.0,95,-99.99,,,-99.99,custom,2013-09-25 10:54:00,
2013-09-25 06:59:00,46.6,44.4,29.93,East,93,1.0,-999.0,92,-99.99,,,-99.99,custom,2013-09-25 10:59:00,
2013-09-25 07:04:00,46.8,44.2,29.93,East,95,1.0,-999.0,91,-99.99,,,-99.99,custom,2013-09-25 11:04:00,
2013-09-25 07:09:00,46.8,46.2,29.91,SE,139,0.0,-999.0,98,-99.99,,,-99.99,custom,2013-09-25 11:09:00,
2013-09-25 07:14:00,46.9,46.4,29.93,SSE,168,1.0,-999.0,98,-99.99,,,-99.99,custom,2013-09-25 11:14:00,
2013-09-25 07:19:00,47.7,45.7,29.92,ESE,116,2.0,-999.0,93,-99.99,,,-99.99,custom,2013-09-25 11:19:00,
2013-09-25 07:24:00,48.2,46.6,29.91,SE,130,1.0,-999.0,94,-99.99,,,-99.99,custom,2013-09-25 11:24:00,
2013-09-25 07:29:00,48.4,45.9,29.97,ESE,102,2.0,-999.0,91,-99.99,,,-99.99,custom,2013-09-25 11:29:00,
2013-09-25 07:34:00,48.7,47.7,29.88,SE,133,0.0,-999.0,96,-99.99,,,-99.99,custom,2013-09-25 11:34:00,
2013-09-25 07:39:00,49.6,46.4,29.95,ESE,105,1.0,-999.0,89,-99.99,,,-99.99,custom,2013-09-25 11:39:00,
2013-09-25 07:44:00,50.5,47.1,29.95,ESE,110,1.0,-999.0,88,-99.99,,,-99.99,custom,2013-09-25 11:44:00,
2013-09-25 07:49:00,50.4,47.5,29.93,SSE,167,0.0,-999.0,90,-99.99,,,-99.99,custom,2013-09-25 11:49:00,
2013-09-25 07:54:00,50.5,46.0,29.94,West,264,1.0,-999.0,84,-99.99,,,-99.99,custom,2013-09-25 11:54:00,
2013-09-25 07:59:00,50.9,47.5,29.94,West,265,1.0,-999.0,88,-99.99,,,-99.99,custom,2013-09-25 11:59:00,
2013-09-25 08:04:00,51.8,46.8,29.93,East,84,0.0,-999.0,83,-99.99,,,-99.99,custom,2013-09-25 12:04:00,
2013-09-25 08:09:00,52.2,48.6,29.92,South,185,1.0,-999.0,87,-99.99,,,-99.99,custom,2013-09-25 12:09:00,
2013-09-25 08:14:00,52.9,47.5,29.96,ESE,119,1.0,-999.0,82,-99.99,,,-99.99,custom,2013-09-25 12:14:00,
2013-09-25 08:19:00,52.7,48.4,29.94,SSW,210,1.0,-999.0,85,-99.99,,,-99.99,custom,2013-09-25 12:19:00,
2013-09-25 08:24:00,53.1,47.5,29.95,West,277,1.0,-999.0,81,-99.99,,,-99.99,custom,2013-09-25 12:24:00,
2013-09-25 08:27:00,53.8,48.4,29.93,SSE,147,1.0,-999.0,82,-99.99,,,-99.99,custom,2013-09-25 12:27:00,
2013-09-25 08:32:00,54.0,50.7,29.95,SW,234,1.0,-999.0,89,-99.99,,,-99.99,custom,2013-09-25 12:32:00,
2013-09-25 08:37:00,53.8,47.3,29.93,WNW,282,3.0,-999.0,79,-99.99,,,-99.99,custom,2013-09-25 12:37:00,
2013-09-25 08:42:00,54.5,50.7,29.94,East,92,0.0,-999.0,87,-99.99,,,-99.99,custom,2013-09-25 12:42:00,
2013-09-25 08:47:00,54.9,49.1,29.95,South,191,1.0,-999.0,80,-99.99,,,-99.99,custom,2013-09-25 12:47:00,
2013-09-25 08:52:00,55.4,50.5,29.95,SE,125,1.0,-999.0,83,-99.99,,,-99.99,custom,2013-09-25 12:52:00,
2013-09-25 08:57:00,56.3,51.6,29.97,ESE,113,1.0,-999.0,84,-99.99,,,-99.99,custom,2013-09-25 12:57:00,
2013-09-25 09:02:00,56.7,50.9,29.96,East,91,1.0,-999.0,81,-99.99,,,-99.99,custom,2013-09-25 13:02:00,
2013-09-25 09:07:00,57.2,50.2,29.95,NE,43,3.0,-999.0,77,-99.99,,,-99.99,custom,2013-09-25 13:07:00,
2013-09-25 09:12:00,58.6,52.7,29.98,SSW,197,1.0,-999.0,80,-99.99,,,-99.99,custom,2013-09-25 13:12:00,
2013-09-25 09:17:00,58.3,53.2,29.97,SE,136,0.0,-999.0,83,-99.99,,,-99.99,custom,2013-09-25 13:17:00,
2013-09-25 09:22:00,57.9,50.9,29.98,WSW,241,4.0,-999.0,77,-99.99,,,-99.99,custom,2013-09-25 13:22:00,
2013-09-25 09:27:00,58.6,50.5,29.97,ENE,62,4.0,-999.0,74,-99.99,,,-99.99,custom,2013-09-25 13:27:00,
2013-09-25 09:32:00,57.7,51.4,29.97,West,260,4.0,-999.0,80,-99.99,,,-99.99,custom,2013-09-25 13:32:00,
2013-09-25 09:37:00,58.8,51.1,29.97,NNW,343,1.0,-999.0,75,-99.99,,,-99.99,custom,2013-09-25 13:37:00,
2013-09-25 09:42:00,59.5,52.2,29.96,East,79,1.0,-999.0,76,-99.99,,,-99.99,custom,2013-09-25 13:42:00,
2013-09-25 09:47:00,60.6,52.2,29.98,ENE,62,2.0,-999.0,73,-99.99,,,-99.99,custom,2013-09-25 13:47:00,
2013-09-25 09:52:00,60.3,52.0,29.98,SSE,165,2.0,-999.0,74,-99.99,,,-99.99,custom,2013-09-25 13:52:00,
2013-09-25 09:57:00,59.9,51.6,29.98,East,86,1.0,-999.0,74,-99.99,,,-99.99,custom,2013-09-25 13:57:00,
2013-09-25 10:02:00,59.9,51.4,29.97,ENE,72,3.0,-999.0,74,-99.99,,,-99.99,custom,2013-09-25 14:02:00,
2013-09-25 10:07:00,59.9,51.1,30.02,North,0,2.0,-999.0,72,-99.99,,,-99.99,custom,2013-09-25 14:07:00,
2013-09-25 10:12:00,61.3,52.3,29.97,NNE,33,1.0,-999.0,72,-99.99,,,-99.99,custom,2013-09-25 14:12:00,
2013-09-25 10:17:00,62.1,52.2,29.98,NE,52,2.0,-999.0,70,-99.99,,,-99.99,custom,2013-09-25 14:17:00,
2013-09-25 10:22:00,60.8,51.1,29.97,ENE,59,2.0,-999.0,70,-99.99,,,-99.99,custom,2013-09-25 14:22:00,
2013-09-25 10:27:00,61.7,52.7,29.97,North,356,2.0,-999.0,72,-99.99,,,-99.99,custom,2013-09-25 14:27:00,
2013-09-25 10:32:00,61.5,53.1,29.97,NNW,347,1.0,-999.0,73,-99.99,,,-99.99,custom,2013-09-25 14:32:00,
2013-09-25 10:37:00,62.8,54.7,29.97,ENE,75,1.0,-999.0,75,-99.99,,,-99.99,custom,2013-09-25 14:37:00,
2013-09-25 10:42:00,62.1,52.7,29.98,East,84,2.0,-999.0,71,-99.99,,,-99.99,custom,2013-09-25 14:42:00,
2013-09-25 10:47:00,63.7,54.0,29.98,East,98,3.0,-999.0,71,-99.99,,,-99.99,custom,2013-09-25 14:47:00,
2013-09-25 10:52:00,64.8,56.1,29.96,ENE,59,1.0,-999.0,73,-99.99,,,-99.99,custom,2013-09-25 14:52:00,
2013-09-25 10:57:00,63.5,54.7,29.96,East,88,1.0,-999.0,73,-99.99,,,-99.99,custom,2013-09-25 14:57:00,
2013-09-25 11:02:00,65.1,53.4,29.97,East,81,2.0,-999.0,65,-99.99,,,-99.99,custom,2013-09-25 15:02:00,
2013-09-25 11:07:00,65.1,55.0,29.96,ENE,60,1.0,-999.0,70,-99.99,,,-99.99,custom,2013-09-25 15:07:00,
2013-09-25 11:12:00,65.3,54.7,29.95,East,82,2.0,-999.0,68,-99.99,,,-99.99,custom,2013-09-25 15:12:00,
2013-09-25 11:17:00,65.8,53.6,29.94,ESE,103,2.0,-999.0,64,-99.99,,,-99.99,custom,2013-09-25 15:17:00,
2013-09-25 11:22:00,66.2,54.9,29.96,SE,139,1.0,-999.0,67,-99.99,,,-99.99,custom,2013-09-25 15:22:00,
2013-09-25 11:27:00,65.3,55.8,29.96,East,86,1.0,-999.0,71,-99.99,,,-99.99,custom,2013-09-25 15:27:00,
2013-09-25 11:32:00,65.5,54.9,29.96,East,89,2.0,-999.0,69,-99.99,,,-99.99,custom,2013-09-25 15:32:00,
2013-09-25 11:37:00,67.3,56.3,29.95,East,90,1.0,-999.0,68,-99.99,,,-99.99,custom,2013-09-25 15:37:00,
2013-09-25 11:42:00,67.1,54.5,29.96,ENE,76,2.0,-999.0,64,-99.99,,,-99.99,custom,2013-09-25 15:42:00,
2013-09-25 11:47:00,67.5,55.6,29.96,North,2,0.0,-999.0,65,-99.99,,,-99.99,custom,2013-09-25 15:47:00,
2013-09-25 11:52:00,66.6,55.6,29.97,ENE,74,1.0,-999.0,68,-99.99,,,-99.99,custom,2013-09-25 15:52:00,
2013-09-25 11:57:00,65.8,52.5,29.96,ENE,57,2.0,-999.0,62,-99.99,,,-99.99,custom,2013-09-25 15:57:00,
2013-09-25 12:02:00,65.3,57.4,29.90,SW,236,1.0,-999.0,76,-99.99,,,-99.99,custom,2013-09-25 16:02:00,
2013-09-25 12:07:00,66.0,55.2,29.90,NNE,12,1.0,-999.0,68,-99.99,,,-99.99,custom,2013-09-25 16:07:00,
2013-09-25 12:12:00,65.8,59.2,29.93,South,173,0.0,-999.0,79,-99.99,,,-99.99,custom,2013-09-25 16:12:00,
2013-09-25 12:17:00,66.9,55.8,29.94,East,93,2.0,-999.0,67,-99.99,,,-99.99,custom,2013-09-25 16:17:00,
2013-09-25 12:22:00,66.2,54.0,29.97,NE,43,1.0,-999.0,65,-99.99,,,-99.99,custom,2013-09-25 16:22:00,
2013-09-25 12:27:00,68.4,56.5,29.99,ENE,57,3.0,-999.0,65,-99.99,,,-99.99,custom,2013-09-25 16:27:00,
2013-09-25 12:32:00,67.1,56.8,29.95,East,81,3.0,-999.0,69,-99.99,,,-99.99,custom,2013-09-25 16:32:00,
2013-09-25 12:37:00,67.6,55.9,29.96,East,90,2.0,-999.0,66,-99.99,,,-99.99,custom,2013-09-25 16:37:00,
2013-09-25 12:42:00,67.1,56.8,29.93,East,83,2.0,-999.0,70,-99.99,,,-99.99,custom,2013-09-25 16:42:00,
2013-09-25 12:47:00,65.7,56.3,29.95,ENE,76,2.0,-999.0,72,-99.99,,,-99.99,custom,2013-09-25 16:47:00,
2013-09-25 12:52:00,65.3,54.0,29.98,NNE,15,1.0,-999.0,67,-99.99,,,-99.99,custom,2013-09-25 16:52:00,
2013-09-25 12:57:00,66.4,56.5,29.97,SSE,167,1.0,-999.0,70,-99.99,,,-99.99,custom,2013-09-25 16:57:00,
2013-09-25 13:02:00,65.3,54.1,29.96,East,83,2.0,-999.0,67,-99.99,,,-99.99,custom,2013-09-25 17:02:00,
2013-09-25 13:07:00,66.9,58.1,29.97,ENE,71,1.0,-999.0,73,-99.99,,,-99.99,custom,2013-09-25 17:07:00,
2013-09-25 13:12:00,68.5,57.2,29.96,SE,129,0.0,-999.0,67,-99.99,,,-99.99,custom,2013-09-25 17:12:00,
2013-09-25 13:17:00,69.4,57.4,29.96,NE,49,0.0,-999.0,65,-99.99,,,-99.99,custom,2013-09-25 17:17:00,
2013-09-25 13:22:00,68.9,54.9,29.98,ENE,72,3.0,-999.0,61,-99.99,,,-99.99,custom,2013-09-25 17:22:00,
2013-09-25 13:27:00,68.4,57.9,29.92,WNW,292,0.0,-999.0,69,-99.99,,,-99.99,custom,2013-09-25 17:27:00,
2013-09-25 13:32:00,70.0,58.8,29.96,NE,34,2.0,-999.0,68,-99.99,,,-99.99,custom,2013-09-25 17:32:00,
2013-09-25 13:37:00,69.4,58.3,29.93,East,83,1.0,-999.0,67,-99.99,,,-99.99,custom,2013-09-25 17:37:00,
2013-09-25 13:42:00,69.6,56.5,29.98,North,5,1.0,-999.0,63,-99.99,,,-99.99,custom,2013-09-25 17:42:00,
2013-09-25 13:47:00,68.2,58.8,29.94,ENE,78,0.0,-999.0,72,-99.99,,,-99.99,custom,2013-09-25 17:47:00,
2013-09-25 13:52:00,69.4,56.3,29.93,East,90,2.0,-999.0,63,-99.99,,,-99.99,custom,2013-09-25 17:52:00,
2013-09-25 13:57:00,70.7,56.5,29.95,ENE,72,2.0,-999.0,61,-99.99,,,-99.99,custom,2013-09-25 17:57:00,
2013-09-25 14:02:00,68.4,58.8,29.94,SSW,195,0.0,-999.0,71,-99.99,,,-99.99,custom,2013-09-25 18:02:00,
2013-09-25 14:07:00,70.2,57.2,29.96,NE,53,2.0,-999.0,63,-99.99,,,-99.99,custom,2013-09-25 18:07:00,
2013-09-25 14:12:00,71.8,58.8,29.93,NE,50,1.0,-999.0,63,-99.99,,,-99.99,custom,2013-09-25 18:12:00,
2013-09-25 14:17:00,72.3,57.7,29.94,ENE,62,2.0,-999.0,60,-99.99,,,-99.99,custom,2013-09-25 18:17:00,
2013-09-25 14:22:00,71.4,58.6,29.93,ENE,72,3.0,-999.0,64,-99.99,,,-99.99,custom,2013-09-25 18:22:00,
2013-09-25 14:27:00,72.7,62.6,29.93,SSW,197,0.0,-999.0,71,-99.99,,,-99.99,custom,2013-09-25 18:27:00,
2013-09-25 14:32:00,70.7,58.5,29.95,ESE,109,1.0,-999.0,65,-99.99,,,-99.99,custom,2013-09-25 18:32:00,
2013-09-25 14:37:00,70.0,55.8,29.94,North,6,1.0,-999.0,61,-99.99,,,-99.99,custom,2013-09-25 18:37:00,
2013-09-25 14:42:00,70.9,58.1,29.93,ENE,67,1.0,-999.0,64,-99.99,,,-99.99,custom,2013-09-25 18:42:00,
2013-09-25 14:47:00,70.9,57.7,29.93,NE,47,2.0,-999.0,63,-99.99,,,-99.99,custom,2013-09-25 18:47:00,
2013-09-25 14:52:00,69.8,58.8,29.93,East,83,1.0,-999.0,68,-99.99,,,-99.99,custom,2013-09-25 18:52:00,
2013-09-25 14:57:00,69.1,58.5,29.92,NE,38,1.0,-999.0,69,-99.99,,,-99.99,custom,2013-09-25 18:57:00,
2013-09-25 15:02:00,69.8,57.6,29.92,East,83,1.0,-999.0,65,-99.99,,,-99.99,custom,2013-09-25 19:02:00,
2013-09-25 15:08:00,69.3,57.2,29.91,ENE,64,1.0,-999.0,65,-99.99,,,-99.99,custom,2013-09-25 19:08:00,
2013-09-25 15:13:00,70.7,57.6,29.93,ENE,65,1.0,-999.0,63,-99.99,,,-99.99,custom,2013-09-25 19:13:00,
2013-09-25 15:18:00,70.9,59.2,29.95,ENE,69,1.0,-999.0,66,-99.99,,,-99.99,custom,2013-09-25 19:18:00,
2013-09-25 15:23:00,70.7,58.8,29.94,East,83,1.0,-999.0,66,-99.99,,,-99.99,custom,2013-09-25 19:23:00,
2013-09-25 15:28:00,70.2,58.3,29.93,ENE,62,1.0,-999.0,66,-99.99,,,-99.99,custom,2013-09-25 19:28:00,
2013-09-25 15:33:00,70.0,58.1,29.95,ENE,76,1.0,-999.0,66,-99.99,,,-99.99,custom,2013-09-25 19:33:00,
2013-09-25 15:38:00,69.6,59.5,29.93,ENE,69,1.0,-999.0,70,-99.99,,,-99.99,custom,2013-09-25 19:38:00,
2013-09-25 15:43:00,70.0,57.7,29.95,East,80,1.0,-999.0,65,-99.99,,,-99.99,custom,2013-09-25 19:43:00,
2013-09-25 15:48:00,69.8,59.2,29.93,ENE,75,0.0,-999.0,69,-99.99,,,-99.99,custom,2013-09-25 19:48:00,
2013-09-25 15:53:00,69.1,58.1,29.94,ENE,70,1.0,-999.0,68,-99.99,,,-99.99,custom,2013-09-25 19:53:00,
2013-09-25 15:58:00,68.9,57.4,29.93,ENE,59,1.0,-999.0,67,-99.99,,,-99.99,custom,2013-09-25 19:58:00,
2013-09-25 16:03:00,67.5,57.6,29.91,ENE,70,1.0,-999.0,70,-99.99,,,-99.99,custom,2013-09-25 20:03:00,
2013-09-25 16:08:00,67.1,57.4,29.96,ENE,61,1.0,-999.0,71,-99.99,,,-99.99,custom,2013-09-25 20:08:00,
2013-09-25 16:13:00,67.1,57.2,29.92,ENE,78,1.0,-999.0,71,-99.99,,,-99.99,custom,2013-09-25 20:13:00,
2013-09-25 16:18:00,68.0,57.0,29.92,ENE,68,2.0,-999.0,68,-99.99,,,-99.99,custom,2013-09-25 20:18:00,
2013-09-25 16:23:00,67.6,57.7,29.93,NE,55,1.0,-999.0,70,-99.99,,,-99.99,custom,2013-09-25 20:23:00,
2013-09-25 16:28:00,67.5,57.7,29.91,ENE,71,1.0,-999.0,71,-99.99,,,-99.99,custom,2013-09-25 20:28:00,
2013-09-25 16:33:00,67.3,57.6,29.93,ENE,69,1.0,-999.0,71,-99.99,,,-99.99,custom,2013-09-25 20:33:00,
2013-09-25 16:38:00,66.7,58.1,29.93,NE,56,1.0,-999.0,74,-99.99,,,-99.99,custom,2013-09-25 20:38:00,
2013-09-25 16:43:00,66.9,57.2,29.94,East,85,1.0,-999.0,71,-99.99,,,-99.99,custom,2013-09-25 20:43:00,
2013-09-25 16:48:00,67.5,57.2,29.95,ENE,69,1.0,-999.0,70,-99.99,,,-99.99,custom,2013-09-25 20:48:00,
2013-09-25 16:53:00,67.5,56.7,29.95,East,91,4.0,-999.0,68,-99.99,,,-99.99,custom,2013-09-25 20:53:00,
2013-09-25 16:58:00,66.9,57.6,29.93,East,81,1.0,-999.0,72,-99.99,,,-99.99,custom,2013-09-25 20:58:00,
2013-09-25 17:03:00,66.9,56.1,29.97,ENE,68,2.0,-999.0,68,-99.99,,,-99.99,custom,2013-09-25 21:03:00,
2013-09-25 17:08:00,65.7,56.7,29.94,NE,54,1.0,-999.0,73,-99.99,,,-99.99,custom,2013-09-25 21:08:00,
2013-09-25 17:13:00,64.4,55.2,29.93,East,83,1.0,-999.0,72,-99.99,,,-99.99,custom,2013-09-25 21:13:00,
2013-09-25 17:18:00,64.6,54.1,29.95,East,79,3.0,-999.0,69,-99.99,,,-99.99,custom,2013-09-25 21:18:00,
2013-09-25 17:23:00,63.9,54.0,29.97,ESE,103,3.0,-999.0,70,-99.99,,,-99.99,custom,2013-09-25 21:23:00,
2013-09-25 17:28:00,63.3,54.0,29.96,ESE,116,2.0,-999.0,71,-99.99,,,-99.99,custom,2013-09-25 21:28:00,
2013-09-25 17:33:00,62.8,54.5,29.97,ENE,78,1.0,-999.0,74,-99.99,,,-99.99,custom,2013-09-25 21:33:00,
2013-09-25 17:38:00,62.2,54.3,29.98,East,90,2.0,-999.0,75,-99.99,,,-99.99,custom,2013-09-25 21:38:00,
2013-09-25 17:43:00,61.9,54.5,29.97,East,83,1.0,-999.0,77,-99.99,,,-99.99,custom,2013-09-25 21:43:00,
2013-09-25 17:48:00,61.7,52.9,29.98,East,92,2.0,-999.0,73,-99.99,,,-99.99,custom,2013-09-25 21:48:00,
2013-09-25 17:53:00,61.3,53.1,29.97,NE,54,1.0,-999.0,74,-99.99,,,-99.99,custom,2013-09-25 21:53:00,
2013-09-25 17:58:00,61.2,52.7,29.97,East,82,2.0,-999.0,74,-99.99,,,-99.99,custom,2013-09-25 21:58:00,
2013-09-25 18:03:00,60.8,52.5,29.95,ENE,73,3.0,-999.0,74,-99.99,,,-99.99,custom,2013-09-25 22:03:00,
2013-09-25 18:08:00,60.6,52.7,29.96,East,98,1.0,-999.0,75,-99.99,,,-99.99,custom,2013-09-25 22:08:00,
2013-09-25 18:13:00,60.4,52.7,29.94,East,79,2.0,-999.0,76,-99.99,,,-99.99,custom,2013-09-25 22:13:00,
2013-09-25 18:18:00,60.3,52.2,29.97,East,83,2.0,-999.0,74,-99.99,,,-99.99,custom,2013-09-25 22:18:00,
2013-09-25 18:23:00,59.9,53.4,29.97,East,81,2.0,-999.0,79,-99.99,,,-99.99,custom,2013-09-25 22:23:00,
2013-09-25 18:28:00,59.7,52.0,29.95,ESE,115,2.0,-999.0,75,-99.99,,,-99.99,custom,2013-09-25 22:28:00,
2013-09-25 18:33:00,59.7,52.0,29.96,East,92,2.0,-999.0,75,-99.99,,,-99.99,custom,2013-09-25 22:33:00,
2013-09-25 18:38:00,58.8,52.0,29.96,ENE,74,2.0,-999.0,78,-99.99,,,-99.99,custom,2013-09-25 22:38:00,
2013-09-25 18:43:00,59.2,51.4,29.98,East,81,2.0,-999.0,76,-99.99,,,-99.99,custom,2013-09-25 22:43:00,
2013-09-25 18:48:00,58.8,51.6,29.95,East,88,2.0,-999.0,77,-99.99,,,-99.99,custom,2013-09-25 22:48:00,
2013-09-25 18:53:00,58.6,50.9,29.95,East,80,1.0,-999.0,75,-99.99,,,-99.99,custom,2013-09-25 22:53:00,
2013-09-25 18:58:00,57.7,51.3,29.97,East,83,1.0,-999.0,79,-99.99,,,-99.99,custom,2013-09-25 22:58:00,
2013-09-25 19:03:00,57.7,50.7,29.99,East,89,1.0,-999.0,77,-99.99,,,-99.99,custom,2013-09-25 23:03:00,
2013-09-25 19:08:00,58.1,50.0,29.98,East,96,2.0,-999.0,74,-99.99,,,-99.99,custom,2013-09-25 23:08:00,
2013-09-25 19:13:00,58.3,51.6,29.98,East,81,1.0,-999.0,78,-99.99,,,-99.99,custom,2013-09-25 23:13:00,
2013-09-25 19:18:00,58.5,50.5,29.98,East,89,2.0,-999.0,75,-99.99,,,-99.99,custom,2013-09-25 23:18:00,
2013-09-25 19:23:00,58.3,51.4,30.02,East,82,1.0,-999.0,78,-99.99,,,-99.99,custom,2013-09-25 23:23:00,
2013-09-25 19:28:00,57.2,51.4,30.01,East,83,1.0,-999.0,81,-99.99,,,-99.99,custom,2013-09-25 23:28:00,
2013-09-25 19:33:00,56.8,51.1,29.98,East,91,1.0,-999.0,81,-99.99,,,-99.99,custom,2013-09-25 23:33:00,
2013-09-25 19:38:00,57.2,50.9,29.99,East,83,2.0,-999.0,79,-99.99,,,-99.99,custom,2013-09-25 23:38:00,
2013-09-25 19:43:00,57.7,51.4,30.01,East,83,2.0,-999.0,79,-99.99,,,-99.99,custom,2013-09-25 23:43:00,
2013-09-25 19:48:00,57.6,50.9,29.98,ESE,102,2.0,-999.0,78,-99.99,,,-99.99,custom,2013-09-25 23:48:00,
2013-09-25 19:54:00,57.6,51.6,29.99,ESE,105,1.0,-999.0,81,-99.99,,,-99.99,custom,2013-09-25 23:54:00,
2013-09-25 19:59:00,57.9,50.9,30.01,East,91,2.0,-999.0,77,-99.99,,,-99.99,custom,2013-09-25 23:59:00,
2013-09-25 20:04:00,58.3,51.4,29.98,East,95,2.0,-999.0,78,-99.99,,,-99.99,custom,2013-09-26 00:04:00,
2013-09-25 20:09:00,58.3,51.6,30.02,East,93,2.0,-999.0,78,-99.99,,,-99.99,custom,2013-09-26 00:09:00,
2013-09-25 20:14:00,57.2,50.9,30.01,East,85,2.0,-999.0,79,-99.99,,,-99.99,custom,2013-09-26 00:14:00,
2013-09-25 20:19:00,58.1,51.6,29.99,East,97,1.0,-999.0,79,-99.99,,,-99.99,custom,2013-09-26 00:19:00,
2013-09-25 20:24:00,58.6,52.3,29.98,East,83,1.0,-999.0,79,-99.99,,,-99.99,custom,2013-09-26 00:24:00,
2013-09-25 20:29:00,58.3,52.2,29.98,East,99,1.0,-999.0,80,-99.99,,,-99.99,custom,2013-09-26 00:29:00,
2013-09-25 20:34:00,58.1,51.8,30.04,East,99,1.0,-999.0,79,-99.99,,,-99.99,custom,2013-09-26 00:34:00,
2013-09-25 20:39:00,57.2,51.1,30.02,East,93,1.0,-999.0,80,-99.99,,,-99.99,custom,2013-09-26 00:39:00,
2013-09-25 20:44:00,57.9,51.3,30.01,East,83,1.0,-999.0,78,-99.99,,,-99.99,custom,2013-09-26 00:44:00,
2013-09-25 20:49:00,58.1,51.4,30.00,East,83,1.0,-999.0,78,-99.99,,,-99.99,custom,2013-09-26 00:49:00,
2013-09-25 20:54:00,57.9,51.8,30.00,East,95,1.0,-999.0,80,-99.99,,,-99.99,custom,2013-09-26 00:54:00,
2013-09-25 20:59:00,57.9,51.4,30.00,East,92,1.0,-999.0,79,-99.99,,,-99.99,custom,2013-09-26 00:59:00,
2013-09-25 21:04:00,57.4,50.4,30.00,East,91,2.0,-999.0,77,-99.99,,,-99.99,custom,2013-09-26 01:04:00,
2013-09-25 21:09:00,55.8,50.9,29.99,East,91,1.0,-999.0,83,-99.99,,,-99.99,custom,2013-09-26 01:09:00,
2013-09-25 21:14:00,54.0,49.8,30.00,East,83,1.0,-999.0,86,-99.99,,,-99.99,custom,2013-09-26 01:14:00,
2013-09-25 21:19:00,54.9,50.2,30.03,East,91,2.0,-999.0,84,-99.99,,,-99.99,custom,2013-09-26 01:19:00,
2013-09-25 21:24:00,54.1,51.3,30.01,ENE,76,1.0,-999.0,90,-99.99,,,-99.99,custom,2013-09-26 01:24:00,
2013-09-25 21:29:00,53.4,50.2,30.02,East,83,2.0,-999.0,88,-99.99,,,-99.99,custom,2013-09-26 01:29:00,
2013-09-25 21:34:00,54.5,51.3,30.03,East,92,1.0,-999.0,89,-99.99,,,-99.99,custom,2013-09-26 01:34:00,
2013-09-25 21:39:00,54.5,50.9,30.01,ESE,103,1.0,-999.0,88,-99.99,,,-99.99,custom,2013-09-26 01:39:00,
2013-09-25 21:44:00,54.5,50.9,30.06,East,95,1.0,-999.0,87,-99.99,,,-99.99,custom,2013-09-26 01:44:00,
2013-09-25 21:49:00,55.2,51.3,30.05,East,83,1.0,-999.0,86,-99.99,,,-99.99,custom,2013-09-26 01:49:00,
2013-09-25 21:54:00,55.2,52.0,30.05,East,99,1.0,-999.0,89,-99.99,,,-99.99,custom,2013-09-26 01:54:00,
2013-09-25 21:59:00,55.0,51.4,30.04,East,92,1.0,-999.0,87,-99.99,,,-99.99,custom,2013-09-26 01:59:00,
2013-09-25 22:04:00,55.4,51.8,30.06,East,88,1.0,-999.0,88,-99.99,,,-99.99,custom,2013-09-26 02:04:00,
2013-09-25 22:09:00,55.9,52.3,30.06,East,89,1.0,-999.0,88,-99.99,,,-99.99,custom,2013-09-26 02:09:00,
2013-09-25 22:14:00,55.6,52.3,30.02,ESE,122,1.0,-999.0,89,-99.99,,,-99.99,custom,2013-09-26 02:14:00,
2013-09-25 22:19:00,55.9,51.8,30.06,East,86,1.0,-999.0,86,-99.99,,,-99.99,custom,2013-09-26 02:19:00,
2013-09-25 22:24:00,55.4,51.4,30.04,East,91,1.0,-999.0,86,-99.99,,,-99.99,custom,2013-09-26 02:24:00,
2013-09-25 22:29:00,55.6,51.6,30.03,East,91,1.0,-999.0,86,-99.99,,,-99.99,custom,2013-09-26 02:29:00,
2013-09-25 22:34:00,56.8,52.9,30.03,East,81,1.0,-999.0,86,-99.99,,,-99.99,custom,2013-09-26 02:34:00,
2013-09-25 22:39:00,56.1,52.5,30.01,East,92,1.0,-999.0,88,-99.99,,,-99.99,custom,2013-09-26 02:39:00,
2013-09-25 22:44:00,57.2,52.5,30.03,East,82,2.0,-999.0,84,-99.99,,,-99.99,custom,2013-09-26 02:44:00,
2013-09-25 22:49:00,56.8,53.1,30.02,East,85,1.0,-999.0,87,-99.99,,,-99.99,custom,2013-09-26 02:49:00,
2013-09-25 22:54:00,55.9,52.3,30.03,East,93,1.0,-999.0,88,-99.99,,,-99.99,custom,2013-09-26 02:54:00,
2013-09-25 22:59:00,55.6,52.0,30.05,East,95,1.0,-999.0,87,-99.99,,,-99.99,custom,2013-09-26 02:59:00,
2013-09-25 23:04:00,55.6,51.8,30.03,East,84,1.0,-999.0,87,-99.99,,,-99.99,custom,2013-09-26 03:04:00,
2013-09-25 23:09:00,56.3,52.0,30.03,NE,41,1.0,-999.0,85,-99.99,,,-99.99,custom,2013-09-26 03:09:00,
2013-09-25 23:14:00,57.0,52.9,30.05,East,95,2.0,-999.0,86,-99.99,,,-99.99,custom,2013-09-26 03:14:00,
2013-09-25 23:19:00,56.8,52.3,30.07,East,83,1.0,-999.0,85,-99.99,,,-99.99,custom,2013-09-26 03:19:00,
2013-09-25 23:24:00,55.9,52.5,30.07,East,83,1.0,-999.0,88,-99.99,,,-99.99,custom,2013-09-26 03:24:00,
2013-09-25 23:29:00,55.8,51.8,30.06,East,90,2.0,-999.0,86,-99.99,,,-99.99,custom,2013-09-26 03:29:00,
2013-09-25 23:34:00,55.8,52.7,30.04,East,83,1.0,-999.0,90,-99.99,,,-99.99,custom,2013-09-26 03:34:00,
2013-09-25 23:39:00,54.5,52.7,30.02,East,86,1.0,-999.0,93,-99.99,,,-99.99,custom,2013-09-26 03:39:00,
2013-09-25 23:44:00,55.2,51.6,30.06,East,93,2.0,-999.0,88,-99.99,,,-99.99,custom,2013-09-26 03:44:00,
2013-09-25 23:49:00,55.8,52.7,30.02,ENE,61,1.0,-999.0,90,-99.99,,,-99.99,custom,2013-09-26 03:49:00,
2013-09-25 23:54:00,56.1,52.7,30.04,ESE,102,1.0,-999.0,88,-99.99,,,-99.99,custom,2013-09-26 03:54:00,
2013-09-25 23:59:00,56.3,52.3,30.07,East,89,1.0,-999.0,87,-99.99,,,-99.99,custom,2013-09-26 03:59:00,